Time;durP1;ratioP1;P1;durP2;ratioP2;P2;SDS_P1;SDS_P2;PMS_P1;PMS_P2;Temp;Humidity;BMP_temperature;BMP_pressure;BME280_temperature;BME280_humidity;BME280_pressure;Samples;Min_cycle;Max_cycle;Signal;HPM_P1;HPM_P2
2022/04/25 00:01:33;;;;;;;6.67;3.98;;;;;;;;;;1764039;81;21018;-83
2022/04/25 00:03:59;;;;;;;5.95;4.15;;;;;;;;;;1766843;80;21100;-82
2022/04/25 00:06:26;;;;;;;7.03;3.95;;;;;;;;;;1754426;81;21521;-83
2022/04/25 00:08:53;;;;;;;6.33;4.30;;;;;;;;;;1760491;81;21041;-83
2022/04/25 00:11:20;;;;;;;5.55;4.30;;;;;;;;;;1765405;81;21541;-82
2022/04/25 00:13:48;;;;;;;6.37;4.53;;;;;;;;;;1748882;81;21113;-81
2022/04/25 00:16:15;;;;;;;6.22;4.58;;;;;;;;;;1767555;81;20975;-82
2022/04/25 00:18:42;;;;;;;8.20;4.25;;;;;;;;;;1767316;81;21109;-82
2022/04/25 00:21:08;;;;;;;6.50;4.37;;;;;;;;;;1752123;81;20986;-82
2022/04/25 00:23:35;;;;;;;7.45;5.12;;;;;;;;;;1766085;81;21109;-82
2022/04/25 00:26:01;;;;;;;6.78;4.62;;;;;;;;;;1753094;81;21064;-82
2022/04/25 00:28:29;;;;;;;6.83;4.15;;;;;;;;;;1747209;82;21600;-83
2022/04/25 00:30:56;;;;;;;8.55;4.45;;;;;;;;;;1767271;81;21065;-82
2022/04/25 00:33:22;;;;;;;6.08;4.35;;;;;;;;;;1751057;81;21091;-83
2022/04/25 00:35:49;;;;;;;6.75;4.35;;;;;;;;;;1758050;81;21053;-83
2022/04/25 00:38:17;;;;;;;6.75;4.58;;;;;;;;;;1759338;81;21014;-83
2022/04/25 00:40:45;;;;;;;6.90;4.67;;;;;;;;;;1750825;81;21041;-82
2022/04/25 00:43:11;;;;;;;6.25;4.50;;;;;;;;;;1750455;81;21461;-82
2022/04/25 00:45:37;;;;;;;7.03;4.78;;;;;;;;;;1761239;81;21033;-82
2022/04/25 00:48:05;;;;;;;8.60;5.08;;;;;;;;;;1760804;81;20998;-82
2022/04/25 00:50:32;;;;;;;7.08;4.45;;;;;;;;;;1753856;81;21084;-82
2022/04/25 00:52:58;;;;;;;8.03;4.85;;;;;;;;;;1749507;81;21056;-83
2022/04/25 00:55:24;;;;;;;6.17;4.53;;;;;;;;;;1759585;81;21548;-82
2022/04/25 00:57:54;;;;;;;6.70;4.47;;;;;;;;;;1762937;81;21057;-83
2022/04/25 01:03:31;;;;;;;5.95;4.30;;;;;;;;;;1694709;80;21402;-92
2022/04/25 01:05:59;;;;;;;6.35;4.37;;;;;;;;;;1721304;82;21096;-91
2022/04/25 01:08:26;;;;;;;6.97;4.72;;;;;;;;;;1708112;83;21078;-93
2022/04/25 01:10:52;;;;;;;6.67;4.55;;;;;;;;;;1707924;83;21031;-92
2022/04/25 01:13:20;;;;;;;6.97;4.92;;;;;;;;;;1720621;83;21005;-92
2022/04/25 01:15:48;;;;;;;5.97;3.70;;;;;;;;;;1715102;83;21046;-92
2022/04/25 01:18:14;;;;;;;5.03;3.70;;;;;;;;;;1700493;82;21175;-92
2022/04/25 01:20:41;;;;;;;6.10;4.53;;;;;;;;;;1711039;83;21079;-92
2022/04/25 01:28:39;;;;;;;6.12;4.03;;;;;;;;;;1719174;83;21023;-92
2022/04/25 01:31:05;;;;;;;7.28;5.50;;;;;;;;;;1722175;83;21027;-92
2022/04/25 01:33:32;;;;;;;6.35;4.50;;;;;;;;;;1711989;83;21082;-91
2022/04/25 01:35:58;;;;;;;6.60;4.45;;;;;;;;;;1720230;83;21035;-93
2022/04/25 01:38:24;;;;;;;6.15;4.78;;;;;;;;;;1717801;83;20999;-94
2022/04/25 01:40:51;;;;;;;6.42;4.08;;;;;;;;;;1721507;83;20996;-93
2022/04/25 01:43:17;;;;;;;5.67;4.58;;;;;;;;;;1722549;83;21839;-90
2022/04/25 01:45:43;;;;;;;6.28;4.60;;;;;;;;;;1722250;83;21031;-93
2022/04/25 01:48:10;;;;;;;6.08;4.17;;;;;;;;;;1714375;83;21047;-91
2022/04/25 01:50:36;;;;;;;6.53;4.72;;;;;;;;;;1710628;82;21032;-88
2022/04/25 01:53:02;;;;;;;7.03;4.60;;;;;;;;;;1723519;82;21008;-88
2022/04/25 01:55:30;;;;;;;7.37;5.10;;;;;;;;;;1722962;82;21108;-89
2022/04/25 01:57:56;;;;;;;6.75;4.67;;;;;;;;;;1724371;82;21095;-90
2022/04/25 02:00:22;;;;;;;6.85;4.65;;;;;;;;;;1720873;83;21040;-90
2022/04/25 02:02:48;;;;;;;6.50;4.67;;;;;;;;;;1714459;83;21094;-91
2022/04/25 02:05:16;;;;;;;6.87;4.75;;;;;;;;;;1693629;85;21055;-91
2022/04/25 02:07:44;;;;;;;7.28;4.75;;;;;;;;;;1702968;83;21014;-92
2022/04/25 02:10:11;;;;;;;6.08;4.08;;;;;;;;;;1719163;82;21050;-90
2022/04/25 02:12:37;;;;;;;7.62;5.17;;;;;;;;;;1705828;83;21030;-89
2022/04/25 02:15:04;;;;;;;7.58;4.85;;;;;;;;;;1706090;83;21140;-90
2022/04/25 02:17:31;;;;;;;6.10;4.22;;;;;;;;;;1726681;83;21548;-91
2022/04/25 02:19:59;;;;;;;8.33;5.00;;;;;;;;;;1723769;81;21394;-91
2022/04/25 02:22:25;;;;;;;5.58;4.17;;;;;;;;;;1713336;83;21007;-92
2022/04/25 02:24:52;;;;;;;7.05;4.75;;;;;;;;;;1721653;83;21003;-91
2022/04/25 02:27:18;;;;;;;5.33;4.00;;;;;;;;;;1735802;83;21006;-91
2022/04/25 02:29:46;;;;;;;7.12;4.33;;;;;;;;;;1728146;82;20987;-90
2022/04/25 02:32:12;;;;;;;6.10;4.30;;;;;;;;;;1719177;83;21493;-91
2022/04/25 02:34:41;;;;;;;7.35;4.37;;;;;;;;;;1723656;83;21006;-92
2022/04/25 02:37:07;;;;;;;7.60;5.40;;;;;;;;;;1701403;83;21089;-91
2022/04/25 02:39:34;;;;;;;6.97;4.65;;;;;;;;;;1728481;82;21073;-90
2022/04/25 02:42:01;;;;;;;6.08;4.60;;;;;;;;;;1705697;84;21553;-91
2022/04/25 02:44:28;;;;;;;6.53;4.17;;;;;;;;;;1672743;85;21073;-90
2022/04/25 02:46:54;;;;;;;7.40;4.72;;;;;;;;;;1720848;83;21083;-92
2022/04/25 02:49:22;;;;;;;8.63;5.05;;;;;;;;;;1728725;82;21034;-90
2022/04/25 02:51:48;;;;;;;7.45;5.00;;;;;;;;;;1733952;82;21061;-91
2022/04/25 02:54:14;;;;;;;6.53;4.53;;;;;;;;;;1705135;84;21120;-91
2022/04/25 02:56:42;;;;;;;6.28;4.28;;;;;;;;;;1709959;83;21101;-90
2022/04/25 02:59:08;;;;;;;6.12;4.53;;;;;;;;;;1734672;82;21101;-92
2022/04/25 03:03:53;;;;;;;6.60;4.67;;;;;;;;;;1821858;78;22858;-92
2022/04/25 03:06:20;;;;;;;6.20;4.80;;;;;;;;;;1793305;80;21031;-92
2022/04/25 03:08:47;;;;;;;6.72;4.87;;;;;;;;;;1756911;81;21105;-92
2022/04/25 03:11:14;;;;;;;7.15;4.85;;;;;;;;;;1718831;83;21607;-92
2022/04/25 03:13:42;;;;;;;7.83;4.92;;;;;;;;;;1718082;83;21044;-92
2022/04/25 03:16:09;;;;;;;6.03;4.40;;;;;;;;;;1706861;83;21073;-91
2022/04/25 03:18:35;;;;;;;5.53;3.80;;;;;;;;;;1707985;83;21064;-91
2022/04/25 03:21:03;;;;;;;5.67;4.10;;;;;;;;;;1707194;83;21536;-92
2022/04/25 03:23:30;;;;;;;6.35;4.17;;;;;;;;;;1715481;83;21041;-92
2022/04/25 03:25:56;;;;;;;7.12;4.45;;;;;;;;;;1718206;79;21486;-92
2022/04/25 03:28:23;;;;;;;5.33;4.03;;;;;;;;;;1721734;83;21365;-91
2022/04/25 03:30:51;;;;;;;6.08;4.50;;;;;;;;;;1710626;81;21520;-90
2022/04/25 03:33:19;;;;;;;6.25;4.70;;;;;;;;;;1733822;79;21632;-91
2022/04/25 03:35:46;;;;;;;6.58;4.80;;;;;;;;;;1724612;83;22098;-93
2022/04/25 03:38:13;;;;;;;6.00;4.03;;;;;;;;;;1707065;83;21023;-90
2022/04/25 03:40:41;;;;;;;6.33;4.08;;;;;;;;;;1748708;81;21063;-90
2022/04/25 03:43:08;;;;;;;6.37;4.60;;;;;;;;;;1762052;81;21028;-91
2022/04/25 03:45:34;;;;;;;5.97;3.50;;;;;;;;;;1762128;81;21059;-92
2022/04/25 03:48:01;;;;;;;7.35;4.37;;;;;;;;;;1762519;81;22196;-91
2022/04/25 03:50:28;;;;;;;5.70;4.00;;;;;;;;;;1745947;82;21107;-91
2022/04/25 03:52:54;;;;;;;5.47;4.35;;;;;;;;;;1728840;82;21075;-92
2022/04/25 03:58:06;;;;;;;6.17;4.40;;;;;;;;;;1716646;83;21093;-91
2022/04/25 04:00:32;;;;;;;16.70;6.65;;;;;;;;;;1716495;83;21004;-91
2022/04/25 04:02:58;;;;;;;6.12;4.45;;;;;;;;;;1706964;83;21091;-91
2022/04/25 04:05:25;;;;;;;6.37;4.15;;;;;;;;;;1681023;85;21016;-92
2022/04/25 04:07:53;;;;;;;7.10;4.83;;;;;;;;;;1680958;85;21045;-93
2022/04/25 04:10:21;;;;;;;7.35;4.62;;;;;;;;;;1705294;84;21087;-81
2022/04/25 04:12:48;;;;;;;6.67;4.55;;;;;;;;;;1708495;84;21036;-82
2022/04/25 04:15:15;;;;;;;7.30;4.70;;;;;;;;;;1708213;84;21064;-81
2022/04/25 04:17:43;;;;;;;6.17;4.92;;;;;;;;;;1709473;84;21021;-92
2022/04/25 04:20:11;;;;;;;6.40;4.50;;;;;;;;;;1709229;84;21028;-91
2022/04/25 04:22:38;;;;;;;6.25;4.40;;;;;;;;;;1708447;84;21135;-92
2022/04/25 04:25:05;;;;;;;5.40;4.45;;;;;;;;;;1708890;84;21047;-92
2022/04/25 04:27:32;;;;;;;6.75;4.97;;;;;;;;;;1708237;84;21048;-92
2022/04/25 04:30:03;;;;;;;6.22;4.37;;;;;;;;;;1708471;84;21120;-84
2022/04/25 04:32:31;;;;;;;5.45;4.42;;;;;;;;;;1697514;84;21056;-92
2022/04/25 04:34:59;;;;;;;6.92;4.30;;;;;;;;;;1694072;84;21056;-93
2022/04/25 04:37:25;;;;;;;5.83;4.85;;;;;;;;;;1705607;84;21012;-90
2022/04/25 04:40:28;;;;;;;7.37;4.67;;;;;;;;;;1678941;84;21547;-90
2022/04/25 04:42:22;;;;;;;5.47;4.20;;;;;;;;;;1682249;84;21637;-92
2022/04/25 04:44:48;;;;;;;6.62;4.78;;;;;;;;;;1708426;84;21105;-90
2022/04/25 04:47:15;;;;;;;5.62;4.30;;;;;;;;;;1709048;84;21008;-89
2022/04/25 04:49:43;;;;;;;5.58;4.28;;;;;;;;;;1707241;84;21091;-89
2022/04/25 04:52:08;;;;;;;6.45;4.92;;;;;;;;;;1706014;84;21047;-91
2022/04/25 04:54:36;;;;;;;5.62;4.10;;;;;;;;;;1702182;84;21582;-90
2022/04/25 04:57:04;;;;;;;5.37;4.60;;;;;;;;;;1705342;84;21087;-90
2022/04/25 04:59:30;;;;;;;5.37;3.95;;;;;;;;;;1695194;84;21504;-90
2022/04/25 05:01:58;;;;;;;6.53;4.25;;;;;;;;;;1699368;84;21384;-90
2022/04/25 05:04:24;;;;;;;5.85;4.67;;;;;;;;;;1741400;82;21063;-91
2022/04/25 05:06:50;;;;;;;4.60;3.67;;;;;;;;;;1728793;82;21016;-90
2022/04/25 05:09:20;;;;;;;6.40;4.70;;;;;;;;;;1725981;83;21614;-89
2022/04/25 05:11:46;;;;;;;5.62;4.28;;;;;;;;;;1726260;83;21603;-91
2022/04/25 05:14:12;;;;;;;5.25;4.33;;;;;;;;;;1726104;83;21120;-89
2022/04/25 05:16:40;;;;;;;6.20;4.15;;;;;;;;;;1728782;82;21553;-90
2022/04/25 05:19:08;;;;;;;6.60;4.67;;;;;;;;;;1726207;83;21060;-91
2022/04/25 05:21:37;;;;;;;6.12;4.62;;;;;;;;;;1725941;83;21079;-89
2022/04/25 05:24:04;;;;;;;6.28;4.58;;;;;;;;;;1728409;82;21037;-90
2022/04/25 05:26:30;;;;;;;7.60;4.50;;;;;;;;;;1726145;83;21536;-91
2022/04/25 05:28:57;;;;;;;6.62;4.70;;;;;;;;;;1728189;82;21036;-93
2022/04/25 05:31:24;;;;;;;6.10;4.50;;;;;;;;;;1726103;83;21552;-92
2022/04/25 05:33:51;;;;;;;5.90;4.67;;;;;;;;;;1726314;83;21073;-85
2022/04/25 05:36:17;;;;;;;6.00;4.30;;;;;;;;;;1725905;83;21095;-86
2022/04/25 05:38:43;;;;;;;6.12;4.40;;;;;;;;;;1725953;83;21063;-87
2022/04/25 05:41:10;;;;;;;5.45;4.33;;;;;;;;;;1725892;83;21080;-86
2022/04/25 05:43:37;;;;;;;5.15;4.12;;;;;;;;;;1725572;83;21044;-87
2022/04/25 05:46:03;;;;;;;6.28;4.22;;;;;;;;;;1726134;83;22140;-87
2022/04/25 05:54:00;;;;;;;5.97;4.05;;;;;;;;;;1743323;82;21019;-88
2022/04/25 05:56:27;;;;;;;6.65;4.50;;;;;;;;;;1734427;82;21065;-89
2022/04/25 05:58:55;;;;;;;6.28;4.67;;;;;;;;;;1748484;82;22065;-88
2022/04/25 06:01:21;;;;;;;5.97;4.35;;;;;;;;;;1756396;82;21033;-87
2022/04/25 06:03:47;;;;;;;6.67;4.67;;;;;;;;;;1723178;82;21096;-85
2022/04/25 06:06:13;;;;;;;5.58;4.33;;;;;;;;;;1716437;84;21790;-84
2022/04/25 06:08:40;;;;;;;6.10;5.00;;;;;;;;;;1706275;83;21083;-84
2022/04/25 06:11:08;;;;;;;6.42;5.08;;;;;;;;;;1705028;83;20984;-85
2022/04/25 06:13:35;;;;;;;8.48;4.45;;;;;;;;;;1725228;83;21071;-85
2022/04/25 06:16:01;;;;;;;6.53;4.40;;;;;;;;;;1720686;83;21019;-84
2022/04/25 06:18:29;;;;;;;6.75;4.55;;;;;;;;;;1679169;85;21087;-86
2022/04/25 06:20:55;;;;;;;5.55;4.37;;;;;;;;;;1680259;84;21033;-86
2022/04/25 06:23:22;;;;;;;7.58;4.70;;;;;;;;;;1695009;84;21044;-86
2022/04/25 06:25:48;;;;;;;5.70;4.12;;;;;;;;;;1679172;85;21017;-85
2022/04/25 06:28:15;;;;;;;5.20;4.33;;;;;;;;;;1684783;84;21429;-85
2022/04/25 06:30:43;;;;;;;5.60;4.10;;;;;;;;;;1692107;85;21027;-85
2022/04/25 06:33:10;;;;;;;6.58;4.85;;;;;;;;;;1698198;84;21041;-85
2022/04/25 06:35:37;;;;;;;8.38;4.55;;;;;;;;;;1711715;83;20992;-86
2022/04/25 06:38:03;;;;;;;6.00;4.35;;;;;;;;;;1696005;83;21005;-87
2022/04/25 06:40:30;;;;;;;6.22;4.28;;;;;;;;;;1707357;83;21076;-87
2022/04/25 06:42:59;;;;;;;9.90;4.05;;;;;;;;;;1688756;84;21166;-87
2022/04/25 06:45:28;;;;;;;5.75;4.65;;;;;;;;;;1696721;84;20997;-87
2022/04/25 06:47:56;;;;;;;8.35;4.67;;;;;;;;;;1681295;84;21143;-88
2022/04/25 06:50:22;;;;;;;5.85;4.25;;;;;;;;;;1679996;84;21111;-88
2022/04/25 06:52:49;;;;;;;5.85;4.65;;;;;;;;;;1686178;84;21052;-87
2022/04/25 06:55:16;;;;;;;6.87;4.05;;;;;;;;;;1698674;84;21018;-86
2022/04/25 06:57:42;;;;;;;6.17;4.30;;;;;;;;;;1711651;83;21079;-90
2022/04/25 07:00:11;;;;;;;7.05;4.10;;;;;;;;;;1725515;83;21067;-86
2022/04/25 07:02:38;;;;;;;5.78;4.22;;;;;;;;;;1714600;83;21063;-84
2022/04/25 07:05:06;;;;;;;5.58;4.12;;;;;;;;;;1705537;83;21072;-86
2022/04/25 07:07:33;;;;;;;6.30;3.92;;;;;;;;;;1705017;83;21136;-86
2022/04/25 07:10:00;;;;;;;23.32;5.45;;;;;;;;;;1706336;83;21156;-85
2022/04/25 07:12:27;;;;;;;5.28;4.30;;;;;;;;;;1705386;84;21076;-87
2022/04/25 07:14:54;;;;;;;7.50;4.28;;;;;;;;;;1705099;83;21044;-88
2022/04/25 07:17:21;;;;;;;6.28;4.40;;;;;;;;;;1713600;83;21017;-90
2022/04/25 07:19:48;;;;;;;6.20;3.85;;;;;;;;;;1734470;83;21069;-91
2022/04/25 07:30:30;;;;;;;5.42;4.12;;;;;;;;;;1707100;83;21041;-92
2022/04/25 07:32:57;;;;;;;5.70;3.65;;;;;;;;;;1728820;83;21025;-93
2022/04/25 07:35:23;;;;;;;5.65;4.45;;;;;;;;;;1738028;83;21028;-95
2022/04/25 07:37:51;;;;;;;5.25;4.20;;;;;;;;;;1708944;84;21090;-94
2022/04/25 07:40:17;;;;;;;4.95;3.83;;;;;;;;;;1714769;83;21048;-92
2022/04/25 07:42:43;;;;;;;6.10;3.98;;;;;;;;;;1725630;83;21024;-93
2022/04/25 07:45:10;;;;;;;5.95;4.22;;;;;;;;;;1723296;83;21055;-90
2022/04/25 07:47:39;;;;;;;6.20;3.98;;;;;;;;;;1706395;84;21027;-92
2022/04/25 07:50:05;;;;;;;5.87;4.20;;;;;;;;;;1706108;83;21478;-91
2022/04/25 07:52:33;;;;;;;6.28;4.00;;;;;;;;;;1705710;83;21095;-89
2022/04/25 07:54:59;;;;;;;6.12;3.90;;;;;;;;;;1706077;83;21078;-83
2022/04/25 07:57:27;;;;;;;5.00;3.80;;;;;;;;;;1687325;84;21559;-83
2022/04/25 07:59:54;;;;;;;6.05;3.75;;;;;;;;;;1705398;84;21092;-83
2022/04/25 08:02:20;;;;;;;5.70;3.60;;;;;;;;;;1718237;83;21128;-83
2022/04/25 08:04:47;;;;;;;4.62;3.37;;;;;;;;;;1737859;82;21072;-83
2022/04/25 08:07:13;;;;;;;7.17;3.92;;;;;;;;;;1729662;82;21526;-84
2022/04/25 08:09:41;;;;;;;4.78;3.60;;;;;;;;;;1725632;82;21248;-84
2022/04/25 08:20:17;;;;;;;5.40;3.58;;;;;;;;;;1725930;82;21115;-82
2022/04/25 08:22:45;;;;;;;4.17;3.42;;;;;;;;;;1724391;82;21076;-83
2022/04/25 08:25:13;;;;;;;6.03;3.40;;;;;;;;;;1718613;82;21028;-84
2022/04/25 08:27:41;;;;;;;5.67;3.50;;;;;;;;;;1710105;82;21020;-83
2022/04/25 08:30:07;;;;;;;5.90;3.55;;;;;;;;;;1738544;82;21036;-84
2022/04/25 08:32:33;;;;;;;12.30;3.80;;;;;;;;;;1732519;82;21106;-83
2022/04/25 08:35:01;;;;;;;5.83;3.67;;;;;;;;;;1731712;82;21153;-82
2022/04/25 08:37:29;;;;;;;6.67;3.65;;;;;;;;;;1739109;82;21013;-82
2022/04/25 08:39:55;;;;;;;8.00;3.42;;;;;;;;;;1739083;82;21080;-83
2022/04/25 08:42:22;;;;;;;5.50;3.65;;;;;;;;;;1739486;82;22030;-83
2022/04/25 08:44:52;;;;;;;6.33;3.77;;;;;;;;;;1737421;82;21021;-83
2022/04/25 08:47:18;;;;;;;5.58;3.50;;;;;;;;;;1713667;82;21222;-82
2022/04/25 08:49:46;;;;;;;5.40;3.67;;;;;;;;;;1709117;84;21147;-82
2022/04/25 08:52:12;;;;;;;4.90;3.70;;;;;;;;;;1712250;82;21492;-83
2022/04/25 08:54:38;;;;;;;5.28;3.58;;;;;;;;;;1722040;82;21077;-82
2022/04/25 08:57:06;;;;;;;5.08;3.20;;;;;;;;;;1738709;82;21080;-82
2022/04/25 08:59:32;;;;;;;6.40;3.42;;;;;;;;;;1723897;82;21556;-83
2022/04/25 09:01:58;;;;;;;8.98;4.33;;;;;;;;;;1738466;82;20993;-83
2022/04/25 09:04:24;;;;;;;6.78;4.30;;;;;;;;;;1735870;82;21044;-83
2022/04/25 09:06:51;;;;;;;7.83;4.12;;;;;;;;;;1734584;83;20994;-82
2022/04/25 09:09:18;;;;;;;5.55;3.87;;;;;;;;;;1706968;83;21000;-83
2022/04/25 09:14:32;;;;;;;9.38;4.12;;;;;;;;;;1705943;83;21623;-84
2022/04/25 09:17:00;;;;;;;5.78;3.90;;;;;;;;;;1705924;84;21095;-83
2022/04/25 09:19:27;;;;;;;6.97;4.20;;;;;;;;;;1706272;83;21060;-83
2022/04/25 09:21:53;;;;;;;7.95;4.00;;;;;;;;;;1687240;84;21005;-83
2022/04/25 09:24:26;;;;;;;7.42;4.42;;;;;;;;;;1706714;83;20984;-83
2022/04/25 09:26:55;;;;;;;11.70;4.85;;;;;;;;;;1707773;83;21045;-84
2022/04/25 09:29:28;;;;;;;13.35;4.97;;;;;;;;;;1716295;83;20997;-84
2022/04/25 09:31:56;;;;;;;6.40;4.28;;;;;;;;;;1720924;82;21116;-85
2022/04/25 09:37:08;;;;;;;7.25;4.28;;;;;;;;;;1711573;83;21008;-85
2022/04/25 09:39:36;;;;;;;7.20;4.30;;;;;;;;;;1705203;84;21037;-84
2022/04/25 09:42:02;;;;;;;12.03;4.25;;;;;;;;;;1718947;83;21627;-84
2022/04/25 09:44:30;;;;;;;17.05;5.40;;;;;;;;;;1730081;82;21068;-84
2022/04/25 09:46:58;;;;;;;12.63;4.62;;;;;;;;;;1720853;83;21141;-83
2022/04/25 09:49:24;;;;;;;18.27;4.62;;;;;;;;;;1730426;83;21040;-83
2022/04/25 09:52:01;;;;;;;6.10;3.75;;;;;;;;;;1709895;83;21540;-81
2022/04/25 09:54:29;;;;;;;24.63;5.60;;;;;;;;;;1733481;82;21068;-83
2022/04/25 09:56:57;;;;;;;15.00;4.78;;;;;;;;;;1728083;82;21928;-83
2022/04/25 09:59:23;;;;;;;14.83;4.90;;;;;;;;;;1727546;83;21598;-83
2022/04/25 10:02:04;;;;;;;19.25;4.42;;;;;;;;;;1729226;83;21057;-83
2022/04/25 10:04:35;;;;;;;7.22;3.80;;;;;;;;;;1729395;82;21068;-83
2022/04/25 10:07:03;;;;;;;7.42;3.42;;;;;;;;;;1732550;83;21056;-84
2022/04/25 10:09:32;;;;;;;5.30;4.00;;;;;;;;;;1734504;82;21041;-84
2022/04/25 10:11:59;;;;;;;6.05;3.80;;;;;;;;;;1707582;82;21054;-83
2022/04/25 10:14:25;;;;;;;6.15;4.15;;;;;;;;;;1723589;82;21056;-83
2022/04/25 10:16:51;;;;;;;6.33;3.98;;;;;;;;;;1707545;83;21052;-84
2022/04/25 10:19:19;;;;;;;6.53;4.00;;;;;;;;;;1723143;83;21104;-83
2022/04/25 10:21:45;;;;;;;6.25;3.83;;;;;;;;;;1692612;85;21084;-83
2022/04/25 10:24:11;;;;;;;16.10;5.25;;;;;;;;;;1693880;83;20986;-82
2022/04/25 10:26:37;;;;;;;7.67;4.30;;;;;;;;;;1705526;83;21049;-81
2022/04/25 10:29:07;;;;;;;6.62;4.30;;;;;;;;;;1751979;82;21083;-80
2022/04/25 10:31:45;;;;;;;7.12;4.75;;;;;;;;;;1752347;82;21084;-81
2022/04/25 10:34:09;;;;;;;7.00;4.15;;;;;;;;;;1743175;81;21060;-81
2022/04/25 10:36:38;;;;;;;8.98;4.55;;;;;;;;;;1710905;83;21165;-82
2022/04/25 10:39:13;;;;;;;5.87;4.45;;;;;;;;;;1707108;83;21085;-82
2022/04/25 10:44:27;;;;;;;6.17;4.10;;;;;;;;;;1721074;83;21410;-83
2022/04/25 10:47:09;;;;;;;7.03;4.20;;;;;;;;;;1721331;83;21034;-83
2022/04/25 10:49:37;;;;;;;6.92;4.03;;;;;;;;;;1717333;83;21054;-83
2022/04/25 10:52:09;;;;;;;7.42;3.80;;;;;;;;;;1718786;83;21022;-83
2022/04/25 10:54:45;;;;;;;6.17;4.05;;;;;;;;;;1705988;83;21057;-83
2022/04/25 10:57:13;;;;;;;7.40;4.30;;;;;;;;;;1692956;85;21093;-84
2022/04/25 10:59:41;;;;;;;11.68;4.10;;;;;;;;;;1717335;83;21048;-84
2022/04/25 11:02:20;;;;;;;7.25;4.25;;;;;;;;;;1698474;83;21072;-84
2022/04/25 11:04:46;;;;;;;7.17;4.12;;;;;;;;;;1700144;83;21038;-83
2022/04/25 11:07:22;;;;;;;7.65;3.90;;;;;;;;;;1706592;84;21010;-84
2022/04/25 11:09:48;;;;;;;5.20;3.87;;;;;;;;;;1707875;84;21035;-84
2022/04/25 11:12:16;;;;;;;4.50;3.40;;;;;;;;;;1707852;84;21069;-84
2022/04/25 11:14:57;;;;;;;6.42;4.05;;;;;;;;;;1707883;84;21119;-84
2022/04/25 11:17:24;;;;;;;6.40;3.90;;;;;;;;;;1707677;83;21088;-84
2022/04/25 11:19:53;;;;;;;6.72;4.20;;;;;;;;;;1743417;82;21022;-84
2022/04/25 11:22:33;;;;;;;8.80;4.55;;;;;;;;;;1693334;84;21052;-85
2022/04/25 11:25:18;;;;;;;8.45;4.20;;;;;;;;;;1724000;82;21068;-85
2022/04/25 11:28:04;;;;;;;5.58;3.70;;;;;;;;;;1719843;82;21493;-85
2022/04/25 11:30:30;;;;;;;8.90;4.08;;;;;;;;;;1695478;84;21041;-85
2022/04/25 11:33:04;;;;;;;7.28;4.40;;;;;;;;;;1708031;84;21026;-86
2022/04/25 11:35:31;;;;;;;7.67;3.72;;;;;;;;;;1713698;84;21069;-85
2022/04/25 11:37:57;;;;;;;5.10;3.67;;;;;;;;;;1711885;84;21079;-85
2022/04/25 11:40:24;;;;;;;7.90;4.12;;;;;;;;;;1701908;83;21022;-82
2022/04/25 11:42:50;;;;;;;7.42;4.37;;;;;;;;;;1696468;84;21526;-83
2022/04/25 11:45:16;;;;;;;9.40;4.15;;;;;;;;;;1743804;82;21045;-82
2022/04/25 11:47:42;;;;;;;7.42;4.47;;;;;;;;;;1741303;82;21037;-83
2022/04/25 11:50:13;;;;;;;6.75;4.15;;;;;;;;;;1743922;82;21045;-83
2022/04/25 11:52:46;;;;;;;7.28;4.60;;;;;;;;;;1714820;82;21010;-82
2022/04/25 11:55:12;;;;;;;7.37;3.95;;;;;;;;;;1714241;84;21104;-81
2022/04/25 11:57:40;;;;;;;5.92;3.83;;;;;;;;;;1714195;84;21069;-81
2022/04/25 12:00:14;;;;;;;7.33;4.75;;;;;;;;;;1714933;82;21108;-82
2022/04/25 12:02:42;;;;;;;8.45;4.10;;;;;;;;;;1715502;82;21189;-82
2022/04/25 12:05:10;;;;;;;5.83;3.72;;;;;;;;;;1722191;82;21563;-82
2022/04/25 12:07:37;;;;;;;6.90;3.83;;;;;;;;;;1727557;82;21031;-83
2022/04/25 12:15:40;;;;;;;5.83;3.72;;;;;;;;;;1712722;82;21096;-81
2022/04/25 12:18:14;;;;;;;7.42;4.28;;;;;;;;;;1736721;82;21031;-82
2022/04/25 12:20:40;;;;;;;7.80;4.35;;;;;;;;;;1733102;82;21052;-82
2022/04/25 12:23:08;;;;;;;7.92;4.17;;;;;;;;;;1734141;82;21643;-82
2022/04/25 12:25:39;;;;;;;8.15;4.33;;;;;;;;;;1732070;82;21040;-82
2022/04/25 12:28:08;;;;;;;7.00;4.05;;;;;;;;;;1725147;82;21548;-82
2022/04/25 12:30:53;;;;;;;8.33;4.45;;;;;;;;;;1710735;82;21052;-83
2022/04/25 12:33:21;;;;;;;5.95;3.83;;;;;;;;;;1731451;82;21646;-82
2022/04/25 12:35:48;;;;;;;9.45;4.05;;;;;;;;;;1724861;82;21044;-81
2022/04/25 12:38:35;;;;;;;9.35;5.25;;;;;;;;;;1719791;82;21041;-82
2022/04/25 12:41:03;;;;;;;5.72;3.98;;;;;;;;;;1738195;82;21181;-83
2022/04/25 12:43:37;;;;;;;5.92;4.03;;;;;;;;;;1729413;82;21489;-82
2022/04/25 12:46:05;;;;;;;7.85;4.72;;;;;;;;;;1715552;82;21435;-80
2022/04/25 12:48:51;;;;;;;10.43;4.90;;;;;;;;;;1736100;82;21485;-81
2022/04/25 12:51:36;;;;;;;8.35;4.92;;;;;;;;;;1725454;82;20978;-82
2022/04/25 12:54:03;;;;;;;6.65;4.08;;;;;;;;;;1738140;82;21056;-82
2022/04/25 12:56:30;;;;;;;6.20;4.47;;;;;;;;;;1708938;84;21104;-81
2022/04/25 12:58:57;;;;;;;8.53;4.70;;;;;;;;;;1709110;83;21601;-81
2022/04/25 13:01:26;;;;;;;5.47;4.12;;;;;;;;;;1729596;82;21021;-81
2022/04/25 13:04:07;;;;;;;5.47;4.28;;;;;;;;;;1719552;82;21060;-82
2022/04/25 13:06:35;;;;;;;6.55;4.67;;;;;;;;;;1725635;82;21064;-83
2022/04/25 13:09:01;;;;;;;8.70;4.33;;;;;;;;;;1728442;83;21015;-82
2022/04/25 13:11:29;;;;;;;8.83;4.87;;;;;;;;;;1706139;83;21617;-82
2022/04/25 13:13:57;;;;;;;5.55;3.95;;;;;;;;;;1707797;83;21036;-82
2022/04/25 13:16:24;;;;;;;6.03;4.70;;;;;;;;;;1721727;83;21528;-82
2022/04/25 13:18:51;;;;;;;6.83;4.40;;;;;;;;;;1722826;83;21029;-82
2022/04/25 13:21:18;;;;;;;10.55;4.30;;;;;;;;;;1715527;83;21012;-83
2022/04/25 13:23:50;;;;;;;8.15;4.28;;;;;;;;;;1723518;82;21198;-83
2022/04/25 13:26:17;;;;;;;7.25;4.55;;;;;;;;;;1731745;83;21025;-82
2022/04/25 13:28:45;;;;;;;8.10;4.00;;;;;;;;;;1729069;83;21060;-82
2022/04/25 13:31:11;;;;;;;6.72;4.00;;;;;;;;;;1722740;83;21521;-82
2022/04/25 13:33:37;;;;;;;6.47;4.42;;;;;;;;;;1729732;82;21033;-82
2022/04/25 13:36:05;;;;;;;7.30;3.98;;;;;;;;;;1706735;83;21060;-82
2022/04/25 13:38:32;;;;;;;6.80;4.60;;;;;;;;;;1733078;82;21548;-82
2022/04/25 13:41:02;;;;;;;6.72;4.47;;;;;;;;;;1732791;83;21635;-82
2022/04/25 13:43:31;;;;;;;8.40;5.10;;;;;;;;;;1713105;82;21080;-82
2022/04/25 13:45:58;;;;;;;7.37;4.45;;;;;;;;;;1705318;83;21567;-83
2022/04/25 13:48:25;;;;;;;6.90;4.40;;;;;;;;;;1725120;83;21005;-83
2022/04/25 13:50:52;;;;;;;5.83;4.47;;;;;;;;;;1721341;83;21631;-83
2022/04/25 13:53:18;;;;;;;9.00;5.35;;;;;;;;;;1705371;84;21041;-82
2022/04/25 13:55:46;;;;;;;8.88;4.42;;;;;;;;;;1711155;83;21147;-83
2022/04/25 13:58:12;;;;;;;6.97;4.62;;;;;;;;;;1712338;83;21099;-83
2022/04/25 14:00:38;;;;;;;12.68;5.03;;;;;;;;;;1705251;83;21100;-83
2022/04/25 14:03:06;;;;;;;7.47;4.75;;;;;;;;;;1721074;83;21104;-86
2022/04/25 14:05:37;;;;;;;7.60;4.10;;;;;;;;;;1713579;82;21547;-86
2022/04/25 14:08:04;;;;;;;8.85;4.30;;;;;;;;;;1708368;84;21044;-84
2022/04/25 14:10:31;;;;;;;6.97;4.08;;;;;;;;;;1708239;84;21090;-85
2022/04/25 14:12:58;;;;;;;6.67;3.92;;;;;;;;;;1693562;84;21012;-85
2022/04/25 14:15:24;;;;;;;10.78;4.30;;;;;;;;;;1709696;82;21645;-85
2022/04/25 14:17:51;;;;;;;9.43;4.45;;;;;;;;;;1701725;84;21099;-85
2022/04/25 14:20:17;;;;;;;14.47;4.42;;;;;;;;;;1684812;84;21011;-85
2022/04/25 14:22:45;;;;;;;7.40;4.12;;;;;;;;;;1683333;84;21111;-85
2022/04/25 14:25:11;;;;;;;6.47;4.00;;;;;;;;;;1683019;84;21609;-86
2022/04/25 14:27:39;;;;;;;5.10;3.72;;;;;;;;;;1679565;85;21507;-87
2022/04/25 14:30:05;;;;;;;40.35;6.15;;;;;;;;;;1701134;82;21043;-84
2022/04/25 14:32:34;;;;;;;15.38;4.37;;;;;;;;;;1708250;84;21051;-84
2022/04/25 14:35:01;;;;;;;6.25;3.95;;;;;;;;;;1707388;84;21059;-85
2022/04/25 14:37:27;;;;;;;8.80;3.92;;;;;;;;;;1708480;84;21126;-85
2022/04/25 14:39:55;;;;;;;7.97;3.98;;;;;;;;;;1704460;84;21498;-86
2022/04/25 14:42:21;;;;;;;9.08;4.37;;;;;;;;;;1698823;84;21040;-85
2022/04/25 14:44:47;;;;;;;7.65;3.95;;;;;;;;;;1689777;84;21078;-84
2022/04/25 14:47:14;;;;;;;10.58;4.33;;;;;;;;;;1708594;84;21165;-84
2022/04/25 14:55:09;;;;;;;10.80;3.77;;;;;;;;;;1685313;84;21105;-84
2022/04/25 14:57:36;;;;;;;5.17;3.08;;;;;;;;;;1680482;84;21507;-83
2022/04/25 15:00:03;;;;;;;8.38;3.25;;;;;;;;;;1698737;84;21055;-84
2022/04/25 15:02:31;;;;;;;11.90;3.55;;;;;;;;;;1693442;84;21122;-84
2022/04/25 15:04:58;;;;;;;6.47;2.80;;;;;;;;;;1680081;85;21164;-84
2022/04/25 15:07:23;;;;;;;6.03;2.75;;;;;;;;;;1714024;82;21076;-85
2022/04/25 15:09:51;;;;;;;8.33;3.15;;;;;;;;;;1714728;82;21048;-85
2022/04/25 15:12:17;;;;;;;8.25;3.33;;;;;;;;;;1708919;84;21112;-84
2022/04/25 15:14:44;;;;;;;15.20;3.70;;;;;;;;;;1709705;82;21076;-84
2022/04/25 15:17:10;;;;;;;7.25;2.90;;;;;;;;;;1724239;82;21056;-85
2022/04/25 15:20:44;;;;;;;8.10;2.85;;;;;;;;;;1820266;78;23615;-85
2022/04/25 15:23:12;;;;;;;9.00;3.00;;;;;;;;;;1774711;80;21108;-85
2022/04/25 15:25:39;;;;;;;8.35;3.10;;;;;;;;;;1795447;80;21039;-84
2022/04/25 15:28:07;;;;;;;8.05;2.90;;;;;;;;;;1790271;80;21643;-84
2022/04/25 15:30:35;;;;;;;6.75;2.55;;;;;;;;;;1788434;80;21001;-84
2022/04/25 15:33:04;;;;;;;6.10;2.98;;;;;;;;;;1789679;80;21044;-85
2022/04/25 15:35:33;;;;;;;7.55;3.05;;;;;;;;;;1793072;80;21044;-83
2022/04/25 15:38:00;;;;;;;7.22;2.87;;;;;;;;;;1792831;80;21091;-85
2022/04/25 15:40:26;;;;;;;4.28;2.83;;;;;;;;;;1792899;80;21468;-84
2022/04/25 15:42:53;;;;;;;5.50;2.62;;;;;;;;;;1796245;79;21102;-84